Enfidha, Tunisia
Current Conditions -  °F | °C
As of 7:30 PM on Thursday 23 Oct 2014 (Local Time) from DTNH Reporting Station
Few Clouds Few Clouds  
Wind Chill: 68°   Ceiling: Unl
Heat Index: 68°   Visibility: 5mi
Dew Point: 50°   Wind: 17mph
Humidity: 52%   Direction: 260°W
Pressure: 29.88"   Gusts: NA
Location:  36.14°N, 10.38°E
Report Text: DTNH 231830Z 26015KT 8000 FEW055 20/10 Q1012
Loading
Personal Weather Stations






























Interactive Weather Map
Tropical Storm Tracking
New forecast layout! Learn more

10-Day Weather Forecast

Advertisements
Track Severe Weather on mobile